Home / US / Missouri / Gower

Gower, MO Weather

Current Report for Wed May 23 2018

As of 12:53 AM CDT WED MAY 23 2018

66°F 19°cGower weather conditions : Fair

Fair

Barometer: 30.02 inHg. steady

Humidity: 90%

Wind: N. 0mph

Wind Gust: 2mph

Wind Chill: 66°F

Dew Point: 63°F falling

Visibility: 10.00mi.

Sunrise: 5:56 AM

Sunset: 8:32 PM

Moon Phase: Waxing Gibbous Moon

Daily and Hourly Summary

Loading Gower MO Summary and Hourly data for today, tonight and tomorrow...
Forecast for Gower, MO:
(Forecast based on TAF for )
0122 AM CDT WED MAY 23 2018
  
OVERNIGHT MORNING AFTERNOON EVENING OVERNIGHT
Partly Cloudy Partly Cloudy Partly Cloudy Partly Cloudy Partly Cloudy
Partly
Cloudy
Partly
Cloudy
Partly
Cloudy
Partly
Cloudy
Partly
Cloudy
Original Encoded TAF:
Dated: 0122 AM CDT WED MAY 23 2018
2018/05/23 06:22
TAF KSTJ 230520Z 2306/2406 14004KT P6SM SCT250 
     FM231500 16009KT P6SM SCT050 SCT250 
     FM240000 15008KT P6SM SCT250

Temperatures Today (View More Charts)

Gower, MO updates by locals

Write your own report, forecast, or traffic update:

Please note by clicking on "Post" you acknowledge that you have read the Terms of Service and the report and/or forecast you are posting is in compliance with such terms. Be respectful. An inappropriate post will be removed by a moderator. If you are not finding the information you want, please be sure to note the navigation tabs just above the breadcrumbs, which are links to other data relating to this city.